Washington Pass
Washington Pass
Latest observation 09/01 16:00 PDT
| Time (PDT) | Temp °F 6680' | Temp °F 5450' | RH % 6680' | RH % 5450' | Min mph 6680' | Spd mph 6680' | Gust mph 6680' | Dir ° 6680' | Pcp1 in 5450' | PcpSum in 5450' | SnoHt in 5450' | EqTemp °F 5450' |
|---|---|---|---|---|---|---|---|---|---|---|---|---|
| 09/01 16:00 | 62 | 64 | 33 | 35 | 5 | 9 | 15 | 22 | 0.00 | 0.00 | 3.9 | 72 |
| 09/01 15:00 | 62 | 65 | 34 | 37 | 3 | 10 | 15 | 138 | 0.00 | 0.00 | 3.5 | 75 |
| 09/01 14:00 | 63 | 66 | 33 | 31 | 2 | 7 | 12 | 196 | 0.00 | 0.00 | 2.9 | 81 |
| 09/01 13:00 | 65 | 66 | 33 | 33 | 0 | 4 | 11 | 116 | 0.00 | 0.00 | 218.1 | 81 |
| 09/01 12:00 | 60 | 64 | 43 | 39 | 0 | 2 | 4 | 56 | 0.00 | 0.00 | 3.3 | 74 |
| 09/01 11:00 | 61 | 60 | 41 | 47 | 0 | 3 | 6 | 194 | 0.00 | 0.00 | 3.2 | 66 |
| 09/01 10:00 | 57 | 54 | 40 | 58 | 0 | 2 | 6 | 189 | 0.00 | 0.00 | 4.6 | 53 |
| 09/01 09:00 | 57 | 49 | 47 | 71 | 0 | 1 | 3 | 169 | 0.00 | 0.00 | 4.4 | 47 |
| 09/01 08:00 | 58 | 44 | 43 | 84 | 0 | 2 | 4 | 161 | 0.00 | 0.00 | 5.4 | 42 |
| 09/01 07:00 | 54 | 40 | 43 | 89 | 0 | 1 | 3 | 214 | 0.00 | 0.00 | 5.4 | 40 |
| 09/01 06:00 | 54 | 40 | 42 | 90 | 2 | 5 | 9 | 248 | 0.00 | 0.00 | 5.5 | 39 |
| 09/01 05:00 | 52 | 40 | 46 | 89 | 3 | 6 | 10 | 253 | 0.00 | 0.00 | 5.5 | 39 |
| 09/01 04:00 | 53 | 40 | 49 | 88 | 5 | 8 | 12 | 233 | 0.00 | 0.00 | 5.3 | 40 |
| 09/01 03:00 | 53 | 41 | 52 | 87 | 5 | 7 | 9 | 228 | 0.00 | 0.00 | 5.5 | 40 |
| 09/01 02:00 | 52 | 41 | 53 | 87 | 1 | 7 | 11 | 232 | 0.00 | 0.00 | 5.2 | 41 |
| 09/01 01:00 | 52 | 42 | 56 | 85 | 0 | 3 | 9 | 219 | 0.00 | 0.00 | 5.3 | 42 |
| 09/01 00:00 | 52 | 43 | 57 | 86 | 0 | 3 | 8 | 255 | 0.00 | 0.00 | 5.5 | 42 |
| 08/31 23:00 | 52 | 44 | 58 | 82 | 2 | 5 | 9 | 198 | 0.00 | 0.00 | 5.2 | 43 |
| 08/31 22:00 | 52 | 45 | 60 | 80 | 0 | 1 | 6 | 60 | 0.00 | 0.00 | 5.0 | 45 |
| 08/31 21:00 | 53 | 47 | 62 | 77 | 0 | 2 | 5 | 35 | 0.00 | 0.00 | 5.3 | 47 |
| 08/31 20:00 | 53 | 50 | 60 | 73 | 0 | 0 | 4 | 19 | 0.00 | 0.00 | 5.0 | 51 |
| 08/31 19:00 | 56 | 54 | 55 | 66 | 0 | 0 | 0 | 18 | 0.00 | 0.00 | 4.4 | 57 |
| 08/31 18:00 | 57 | 58 | 54 | 62 | 0 | 0 | 2 | 27 | 0.00 | 0.00 | 4.2 | 64 |
| 08/31 17:00 | 60 | 62 | 46 | 46 | 0 | 5 | 11 | 175 | 0.00 | 0.00 | 4.0 | 79 |

